createdAt,value
2022-12-15T00:00:20.994Z,2.09
2022-12-15T00:00:53.223Z,2.09
2022-12-15T00:01:23.843Z,2.57
2022-12-15T00:01:56.747Z,2.57
2022-12-15T00:02:28.188Z,2.57
2022-12-15T00:03:01.187Z,2.57
2022-12-15T00:03:32.419Z,2.09
2022-12-15T00:04:04.910Z,2.57
2022-12-15T00:04:35.952Z,2.57
2022-12-15T00:05:08.901Z,2.09
2022-12-15T00:05:39.907Z,2.09
2022-12-15T00:06:12.971Z,2.09
2022-12-15T00:06:43.830Z,2.09
2022-12-15T00:07:16.861Z,2.09
2022-12-15T00:07:48.013Z,2.09
2022-12-15T00:08:20.918Z,2.09
2022-12-15T00:08:51.888Z,2.57
2022-12-15T00:09:29.330Z,2.57
2022-12-15T00:09:55.936Z,2.57
2022-12-15T00:10:29.135Z,2.89
2022-12-15T00:10:59.941Z,2.89
2022-12-15T00:11:32.813Z,2.89
2022-12-15T00:12:04.040Z,2.89
2022-12-15T00:12:38.024Z,2.89
2022-12-15T00:13:08.023Z,2.89
2022-12-15T00:13:40.847Z,2.89
2022-12-15T00:14:11.775Z,2.89
2022-12-15T00:14:44.797Z,2.89
2022-12-15T00:15:16.915Z,3.21
2022-12-15T00:15:48.794Z,3.21
2022-12-15T00:16:19.996Z,2.89
2022-12-15T00:16:52.649Z,3.21
2022-12-15T00:17:23.995Z,3.21
2022-12-15T00:17:56.783Z,3.21
2022-12-15T00:18:27.916Z,2.89
2022-12-15T00:19:00.924Z,2.89
2022-12-15T00:19:32.033Z,2.89
2022-12-15T00:20:04.891Z,2.89
2022-12-15T00:20:35.959Z,2.89
2022-12-15T00:21:08.631Z,2.89
2022-12-15T00:21:39.817Z,2.57
2022-12-15T00:21:56.035Z,2.57
2022-12-15T00:22:27.860Z,2.57
2022-12-15T00:22:59.894Z,2.57
2022-12-15T00:23:33.146Z,2.57
2022-12-15T00:24:03.958Z,1.77
2022-12-15T00:24:36.758Z,1.77
2022-12-15T00:25:08.099Z,1.44
2022-12-15T00:25:40.668Z,1.77
2022-12-15T00:26:11.800Z,1.77
2022-12-15T00:26:44.726Z,1.77
2022-12-15T00:27:15.960Z,1.44
2022-12-15T00:27:48.875Z,1.44
2022-12-15T00:28:19.855Z,1.44
2022-12-15T00:28:52.908Z,1.44
2022-12-15T00:29:23.921Z,1.44
2022-12-15T00:29:56.558Z,1.44
2022-12-15T00:30:29.075Z,1.77
2022-12-15T00:31:02.692Z,1.77
2022-12-15T00:31:32.138Z,1.77
2022-12-15T00:32:04.776Z,1.77
2022-12-15T00:32:35.866Z,1.77
2022-12-15T00:33:08.783Z,1.77
2022-12-15T00:33:39.932Z,1.77
2022-12-15T00:34:12.792Z,1.77
2022-12-15T00:34:43.925Z,1.77
2022-12-15T00:35:16.974Z,1.77
2022-12-15T00:35:47.871Z,1.77
2022-12-15T00:36:20.703Z,2.09
2022-12-15T00:36:51.884Z,2.09
2022-12-15T00:37:24.728Z,2.09
2022-12-15T00:37:55.931Z,2.09
2022-12-15T00:38:28.669Z,2.09
2022-12-15T00:39:03.687Z,2.09
2022-12-15T00:39:32.652Z,2.09
2022-12-15T00:40:04.248Z,1.77
2022-12-15T00:40:36.793Z,1.77
2022-12-15T00:41:07.817Z,1.77
2022-12-15T00:41:42.347Z,1.77
2022-12-15T00:42:11.844Z,1.77
2022-12-15T00:42:44.855Z,1.77
2022-12-15T00:43:15.988Z,1.77
2022-12-15T00:43:48.879Z,1.77
2022-12-15T00:44:20.919Z,1.44
2022-12-15T00:44:52.758Z,1.44
2022-12-15T00:45:25.141Z,1.44
2022-12-15T00:45:56.861Z,1.44
2022-12-15T00:46:27.818Z,1.44
2022-12-15T00:47:00.783Z,1.44
2022-12-15T00:47:31.949Z,1.44
2022-12-15T00:48:04.897Z,1.44
2022-12-15T00:48:35.908Z,1.12
2022-12-15T00:49:08.698Z,1.12
2022-12-15T00:49:39.882Z,1.12
2022-12-15T00:50:13.160Z,1.12
2022-12-15T00:50:43.877Z,1.12
2022-12-15T00:51:17.644Z,1.12
2022-12-15T00:51:48.052Z,1.12
2022-12-15T00:52:20.820Z,1.12
2022-12-15T00:52:51.948Z,1.12
2022-12-15T00:53:24.990Z,1.12
2022-12-15T00:53:55.883Z,1.12
2022-12-15T00:54:29.501Z,1.12
2022-12-15T00:54:59.873Z,1.12
2022-12-15T00:55:32.983Z,1.12
2022-12-15T00:56:03.927Z,1.12
2022-12-15T00:56:37.029Z,1.12
2022-12-15T00:57:07.987Z,1.12
2022-12-15T00:57:40.603Z,1.12
2022-12-15T00:58:11.942Z,1.12
2022-12-15T00:58:44.789Z,1.44
2022-12-15T00:59:15.909Z,1.44
2022-12-15T00:59:48.876Z,1.44
2022-12-15T01:00:21.164Z,1.44
2022-12-15T01:00:55.736Z,1.12
2022-12-15T01:01:23.924Z,1.12
2022-12-15T01:01:57.015Z,1.12
2022-12-15T01:02:28.282Z,1.12
2022-12-15T01:03:01.748Z,1.12
2022-12-15T01:03:32.455Z,1.12
2022-12-15T01:04:05.699Z,1.12
2022-12-15T01:04:36.137Z,1.12
2022-12-15T01:05:09.131Z,1.12
2022-12-15T01:05:40.004Z,1.12
2022-12-15T01:06:12.863Z,1.12
2022-12-15T01:06:43.947Z,1.12
2022-12-15T01:07:17.076Z,1.12
2022-12-15T01:07:49.602Z,1.12
2022-12-15T01:08:20.802Z,1.12
2022-12-15T01:08:51.964Z,1.12
2022-12-15T01:09:24.621Z,1.12
2022-12-15T01:09:56.048Z,1.12
2022-12-15T01:10:29.175Z,.64
2022-12-15T01:10:59.957Z,.64
2022-12-15T01:11:32.828Z,.32
2022-12-15T01:12:04.089Z,.32
2022-12-15T01:12:36.929Z,.32
2022-12-15T01:13:07.956Z,0
2022-12-15T01:13:40.811Z,0
2022-12-15T01:14:11.835Z,0
2022-12-15T01:14:27.958Z,0
2022-12-15T01:14:59.856Z,0
2022-12-15T01:15:33.187Z,0
2022-12-15T01:16:04.064Z,0
2022-12-15T01:16:36.096Z,0
2022-12-15T01:17:07.909Z,0
2022-12-15T01:17:39.840Z,0
2022-12-15T01:18:11.943Z,0
2022-12-15T01:18:43.869Z,0
2022-12-15T01:19:16.631Z,0
2022-12-15T01:19:47.934Z,.64
2022-12-15T01:20:21.175Z,1.12
2022-12-15T01:20:51.873Z,1.12
2022-12-15T01:21:25.732Z,1.12
2022-12-15T01:21:56.077Z,1.12
2022-12-15T01:22:28.742Z,1.12
2022-12-15T01:22:59.941Z,1.12
2022-12-15T01:23:33.602Z,1.12
2022-12-15T01:24:03.929Z,1.12
2022-12-15T01:24:36.834Z,.64
2022-12-15T01:25:08.213Z,.32
2022-12-15T01:25:40.846Z,0
2022-12-15T01:26:11.856Z,0
2022-12-15T01:26:44.685Z,0
2022-12-15T01:27:15.961Z,0
2022-12-15T01:27:48.701Z,0
2022-12-15T01:28:19.964Z,0
2022-12-15T01:28:52.739Z,0
2022-12-15T01:29:23.966Z,0
2022-12-15T01:29:56.907Z,0
2022-12-15T01:30:29.087Z,0
2022-12-15T01:31:00.908Z,0
2022-12-15T01:31:32.187Z,0
2022-12-15T01:32:04.824Z,0
2022-12-15T01:32:35.865Z,0
2022-12-15T01:33:08.671Z,0
2022-12-15T01:33:39.913Z,0
2022-12-15T01:34:12.743Z,0
2022-12-15T01:34:43.935Z,0
2022-12-15T01:35:17.232Z,0
2022-12-15T01:35:47.972Z,0
2022-12-15T01:36:20.867Z,0
2022-12-15T01:36:52.101Z,0
2022-12-15T01:37:24.887Z,0
2022-12-15T01:37:55.870Z,0
2022-12-15T01:38:28.738Z,0
2022-12-15T01:39:00.020Z,.32
2022-12-15T01:39:32.887Z,.32
2022-12-15T01:40:04.309Z,.32
2022-12-15T01:40:36.891Z,.64
2022-12-15T01:41:07.861Z,.64
2022-12-15T01:41:40.732Z,.64
2022-12-15T01:42:11.932Z,.64
2022-12-15T01:42:44.928Z,.64
2022-12-15T01:43:15.926Z,.64
2022-12-15T01:43:49.898Z,.64
2022-12-15T01:44:19.969Z,.64
2022-12-15T01:44:52.712Z,.64
2022-12-15T01:45:25.135Z,1.12
2022-12-15T01:45:56.984Z,1.12
2022-12-15T01:46:28.014Z,1.12
2022-12-15T01:47:00.713Z,1.12
2022-12-15T01:47:31.921Z,1.12
2022-12-15T01:48:04.872Z,1.12
2022-12-15T01:48:35.779Z,1.12
2022-12-15T01:49:08.674Z,1.44
2022-12-15T01:49:39.906Z,1.44
2022-12-15T01:50:13.236Z,1.12
2022-12-15T01:50:43.848Z,1.12
2022-12-15T01:51:16.793Z,1.44
2022-12-15T01:51:48.018Z,1.44
2022-12-15T01:52:20.809Z,1.44
2022-12-15T01:52:51.880Z,1.44
2022-12-15T01:53:24.858Z,1.44
2022-12-15T01:53:55.993Z,1.44
2022-12-15T01:54:28.725Z,1.44
2022-12-15T01:54:59.896Z,1.44
2022-12-15T01:55:33.262Z,1.44
2022-12-15T01:56:03.860Z,1.44
2022-12-15T01:56:37.867Z,1.44
2022-12-15T01:57:07.936Z,1.44
2022-12-15T01:57:40.944Z,1.44
2022-12-15T01:58:11.884Z,1.44
2022-12-15T01:58:45.954Z,1.44
2022-12-15T01:59:16.136Z,1.44
2022-12-15T01:59:48.635Z,1.44
2022-12-15T02:00:21.059Z,1.44
2022-12-15T02:00:52.843Z,1.44
2022-12-15T02:01:24.193Z,1.44
2022-12-15T02:01:56.797Z,1.44
2022-12-15T02:02:28.181Z,1.44
2022-12-15T02:03:01.063Z,1.44
2022-12-15T02:03:32.561Z,1.44
2022-12-15T02:04:04.596Z,1.77
2022-12-15T02:04:36.055Z,1.77
2022-12-15T02:05:08.832Z,1.77
2022-12-15T02:05:39.866Z,1.77
2022-12-15T02:05:56.425Z,1.77
2022-12-15T02:06:27.851Z,1.77
2022-12-15T02:07:00.019Z,1.77
2022-12-15T02:07:32.058Z,1.44
2022-12-15T02:08:03.944Z,1.44
2022-12-15T02:08:37.105Z,1.44
2022-12-15T02:09:07.925Z,1.44
2022-12-15T02:09:40.843Z,1.12
2022-12-15T02:10:12.272Z,1.12
2022-12-15T02:10:44.995Z,.64
2022-12-15T02:11:15.954Z,.64
2022-12-15T02:11:48.691Z,.32
2022-12-15T02:12:20.041Z,.32
2022-12-15T02:12:52.892Z,.32
2022-12-15T02:13:24.076Z,.32
2022-12-15T02:13:56.960Z,.32
2022-12-15T02:14:27.992Z,.32
2022-12-15T02:15:02.380Z,0
2022-12-15T02:15:32.097Z,0
2022-12-15T02:16:04.829Z,0
2022-12-15T02:16:35.818Z,0
2022-12-15T02:17:09.085Z,0
2022-12-15T02:17:39.925Z,0
2022-12-15T02:17:56.056Z,0
2022-12-15T02:18:27.990Z,0
2022-12-15T02:19:00.046Z,0
2022-12-15T02:19:32.090Z,0
2022-12-15T02:20:04.446Z,0
2022-12-15T02:20:36.017Z,0
2022-12-15T02:21:08.050Z,0
2022-12-15T02:21:40.049Z,0
2022-12-15T02:22:11.896Z,0
2022-12-15T02:22:44.746Z,0
2022-12-15T02:23:16.152Z,.32
2022-12-15T02:23:48.640Z,.32
2022-12-15T02:24:19.971Z,.32
2022-12-15T02:24:53.010Z,.32
2022-12-15T02:25:24.345Z,.32
2022-12-15T02:25:56.856Z,.64
2022-12-15T02:26:28.098Z,.64
2022-12-15T02:27:00.981Z,.64
2022-12-15T02:27:31.930Z,.64
2022-12-15T02:28:05.032Z,.64
2022-12-15T02:28:36.125Z,.64
2022-12-15T02:29:08.967Z,.64
2022-12-15T02:29:39.993Z,.64
2022-12-15T02:30:13.708Z,.32
2022-12-15T02:30:44.088Z,.32
2022-12-15T02:31:16.710Z,.32
2022-12-15T02:31:49.807Z,.32
2022-12-15T02:32:20.978Z,.32
2022-12-15T02:32:51.965Z,.32
2022-12-15T02:33:24.793Z,.32
2022-12-15T02:33:56.005Z,.64
2022-12-15T02:34:28.651Z,.64
2022-12-15T02:35:00.018Z,.64
2022-12-15T02:35:33.163Z,.64
2022-12-15T02:36:04.057Z,.64
2022-12-15T02:36:36.880Z,1.12
2022-12-15T02:37:07.937Z,1.44
2022-12-15T02:37:40.768Z,1.44
2022-12-15T02:38:11.845Z,1.44
2022-12-15T02:38:44.774Z,1.44
2022-12-15T02:39:16.041Z,1.44
2022-12-15T02:39:48.834Z,1.44
2022-12-15T02:40:20.292Z,1.44
2022-12-15T02:40:53.032Z,1.44
2022-12-15T02:41:24.022Z,1.44
2022-12-15T02:41:56.630Z,1.44
2022-12-15T02:42:28.017Z,1.44
2022-12-15T02:43:01.008Z,1.44
2022-12-15T02:43:32.306Z,1.44
2022-12-15T02:44:05.802Z,1.44
2022-12-15T02:44:35.957Z,1.44
2022-12-15T02:45:09.885Z,1.12
2022-12-15T02:45:40.093Z,1.12
2022-12-15T02:46:13.999Z,1.12
2022-12-15T02:46:44.009Z,1.12
2022-12-15T02:47:16.870Z,1.12
2022-12-15T02:47:47.878Z,.64
2022-12-15T02:48:20.986Z,.64
2022-12-15T02:48:52.077Z,.64
2022-12-15T02:49:24.860Z,.64
2022-12-15T02:49:55.944Z,.32
2022-12-15T02:50:29.326Z,.32
2022-12-15T02:50:59.905Z,.32
2022-12-15T02:51:32.814Z,.32
2022-12-15T02:52:04.022Z,.32
2022-12-15T02:52:37.858Z,1.12
2022-12-15T02:53:07.925Z,1.12
2022-12-15T02:53:40.952Z,1.12
2022-12-15T02:54:12.091Z,1.12
2022-12-15T02:54:45.000Z,1.12
2022-12-15T02:55:16.248Z,.32
2022-12-15T02:55:50.356Z,.64
2022-12-15T02:56:20.045Z,.64
2022-12-15T02:56:52.907Z,.64
2022-12-15T02:57:23.946Z,.64
2022-12-15T02:57:57.835Z,.64
2022-12-15T02:58:28.094Z,.32
2022-12-15T02:59:00.667Z,.32
2022-12-15T02:59:32.105Z,.64
2022-12-15T03:00:06.284Z,.64
2022-12-15T03:00:35.910Z,.64
2022-12-15T03:01:08.943Z,.64
2022-12-15T03:01:40.228Z,.32
2022-12-15T03:02:13.211Z,.32
2022-12-15T03:02:44.075Z,.64
2022-12-15T03:03:17.023Z,.64
2022-12-15T03:03:48.130Z,.64
2022-12-15T03:04:20.947Z,.64
2022-12-15T03:04:51.940Z,.64
2022-12-15T03:05:25.148Z,.64
2022-12-15T03:05:55.990Z,.64
2022-12-15T03:06:28.729Z,.64
2022-12-15T03:07:01.362Z,.64
2022-12-15T03:07:33.186Z,.32
2022-12-15T03:08:03.868Z,.32
2022-12-15T03:08:37.147Z,.32
2022-12-15T03:09:07.910Z,.32
2022-12-15T03:09:40.796Z,.64
2022-12-15T03:10:12.201Z,.64
2022-12-15T03:10:44.730Z,.64
2022-12-15T03:11:16.042Z,.32
2022-12-15T03:11:48.690Z,.32
2022-12-15T03:12:20.021Z,.32
2022-12-15T03:12:52.912Z,.32
2022-12-15T03:13:23.951Z,.32
2022-12-15T03:13:56.769Z,.32
2022-12-15T03:14:28.092Z,.32
2022-12-15T03:15:02.216Z,.32
2022-12-15T03:15:35.582Z,.32
2022-12-15T03:16:05.089Z,0
2022-12-15T03:16:36.092Z,0
2022-12-15T03:17:08.613Z,0
2022-12-15T03:17:40.000Z,0
2022-12-15T03:18:12.830Z,0
2022-12-15T03:18:43.879Z,0
2022-12-15T03:19:16.696Z,0
2022-12-15T03:19:49.926Z,0
2022-12-15T03:20:21.344Z,0
2022-12-15T03:20:51.898Z,0
2022-12-15T03:21:25.713Z,0
2022-12-15T03:21:56.048Z,0
2022-12-15T03:22:36.045Z,0
2022-12-15T03:22:59.891Z,0
2022-12-15T03:23:32.456Z,0
2022-12-15T03:24:03.800Z,0
2022-12-15T03:24:35.898Z,0
2022-12-15T03:25:09.198Z,0
2022-12-15T03:25:40.103Z,0
2022-12-15T03:26:12.725Z,0
2022-12-15T03:26:44.073Z,0
2022-12-15T03:27:17.014Z,0
2022-12-15T03:27:47.841Z,0
2022-12-15T03:28:20.665Z,0
2022-12-15T03:28:51.973Z,0
2022-12-15T03:29:24.910Z,0
2022-12-15T03:29:55.934Z,0
2022-12-15T03:30:30.901Z,0
2022-12-15T03:31:00.094Z,0
2022-12-15T03:31:32.600Z,0
2022-12-15T03:32:04.158Z,0
2022-12-15T03:32:37.176Z,0
2022-12-15T03:33:08.126Z,0
2022-12-15T03:33:40.591Z,0
2022-12-15T03:34:12.043Z,.32
2022-12-15T03:34:44.700Z,.32
2022-12-15T03:35:16.284Z,.32
2022-12-15T03:35:49.572Z,.32
2022-12-15T03:36:20.028Z,1.12
2022-12-15T03:36:53.706Z,1.12
2022-12-15T03:37:23.903Z,1.12
2022-12-15T03:37:56.875Z,1.12
2022-12-15T03:38:28.024Z,1.12
2022-12-15T03:39:00.726Z,1.12
2022-12-15T03:39:32.040Z,1.12
2022-12-15T03:40:04.946Z,1.12
2022-12-15T03:40:35.821Z,1.12
2022-12-15T03:41:08.690Z,.64
2022-12-15T03:41:39.927Z,.32
2022-12-15T03:42:12.883Z,.32
2022-12-15T03:42:43.906Z,.32
2022-12-15T03:43:16.822Z,.32
2022-12-15T03:43:49.535Z,0
2022-12-15T03:44:20.910Z,0
2022-12-15T03:44:51.882Z,0
2022-12-15T03:45:25.755Z,0
2022-12-15T03:45:56.076Z,0
2022-12-15T03:46:28.736Z,0
2022-12-15T03:47:03.458Z,0
2022-12-15T03:47:32.794Z,0
2022-12-15T03:48:04.004Z,0
2022-12-15T03:48:37.651Z,0
2022-12-15T03:49:07.970Z,0
2022-12-15T03:49:40.808Z,0
2022-12-15T03:50:12.265Z,0
2022-12-15T03:50:28.084Z,0
2022-12-15T03:51:00.179Z,0
2022-12-15T03:51:32.004Z,0
2022-12-15T03:52:05.606Z,0
2022-12-15T03:52:36.072Z,0
2022-12-15T03:53:08.703Z,0
2022-12-15T03:53:39.934Z,0
2022-12-15T03:54:12.640Z,0
2022-12-15T03:54:43.979Z,0
2022-12-15T03:55:16.942Z,0
2022-12-15T03:55:48.007Z,0
2022-12-15T03:56:20.893Z,0
2022-12-15T03:56:52.097Z,0
2022-12-15T03:57:24.779Z,0
2022-12-15T03:57:56.110Z,0
2022-12-15T03:58:28.698Z,0
2022-12-15T03:59:00.013Z,0
2022-12-15T03:59:32.872Z,0
2022-12-15T04:00:05.587Z,0
2022-12-15T04:00:37.179Z,0
2022-12-15T04:01:07.983Z,0
2022-12-15T04:01:40.956Z,0
2022-12-15T04:02:12.092Z,0
2022-12-15T04:02:28.413Z,0
2022-12-15T04:03:00.043Z,0
2022-12-15T04:03:32.459Z,0
2022-12-15T04:04:04.888Z,0
2022-12-15T04:04:36.110Z,0
2022-12-15T04:05:09.974Z,0
2022-12-15T04:05:40.047Z,0
2022-12-15T04:06:12.726Z,0
2022-12-15T04:06:43.922Z,0
2022-12-15T04:07:17.935Z,0
2022-12-15T04:07:48.071Z,0
2022-12-15T04:08:20.725Z,0
2022-12-15T04:08:52.088Z,0
2022-12-15T04:09:24.771Z,0
2022-12-15T04:09:56.018Z,0
2022-12-15T04:10:33.918Z,0
2022-12-15T04:10:59.889Z,0
2022-12-15T04:11:32.721Z,0
2022-12-15T04:12:03.901Z,0
2022-12-15T04:12:36.969Z,0
2022-12-15T04:13:07.921Z,0
2022-12-15T04:13:41.561Z,0
2022-12-15T04:14:12.015Z,0
2022-12-15T04:14:44.843Z,0
2022-12-15T04:15:17.037Z,0
2022-12-15T04:15:49.025Z,0
2022-12-15T04:16:20.615Z,0
2022-12-15T04:16:53.117Z,0
2022-12-15T04:17:24.245Z,0
2022-12-15T04:17:57.655Z,0
2022-12-15T04:18:28.054Z,0
2022-12-15T04:19:00.827Z,0
2022-12-15T04:19:31.929Z,0
2022-12-15T04:20:04.921Z,0
2022-12-15T04:20:36.090Z,0
2022-12-15T04:21:08.906Z,0
2022-12-15T04:21:40.011Z,0
2022-12-15T04:22:17.768Z,0
2022-12-15T04:22:44.041Z,0
2022-12-15T04:23:16.855Z,0
2022-12-15T04:23:48.048Z,0
2022-12-15T04:24:21.392Z,0
2022-12-15T04:24:52.077Z,0
2022-12-15T04:25:24.856Z,0
2022-12-15T04:25:55.999Z,0
2022-12-15T04:26:28.787Z,0
2022-12-15T04:26:59.830Z,0
2022-12-15T04:27:32.692Z,0
2022-12-15T04:28:03.916Z,0
2022-12-15T04:28:36.863Z,0
2022-12-15T04:29:07.886Z,0
2022-12-15T04:29:40.691Z,0
2022-12-15T04:30:13.073Z,0
2022-12-15T04:30:44.789Z,0
2022-12-15T04:31:15.907Z,0
2022-12-15T04:31:48.804Z,0
2022-12-15T04:32:19.858Z,0
2022-12-15T04:32:52.672Z,0
2022-12-15T04:33:27.723Z,0
2022-12-15T04:33:57.010Z,0
2022-12-15T04:34:27.904Z,0
2022-12-15T04:35:01.158Z,0
2022-12-15T04:35:32.185Z,0
2022-12-15T04:36:04.622Z,0
2022-12-15T04:36:35.970Z,0
2022-12-15T04:37:08.880Z,0
2022-12-15T04:37:40.083Z,0
2022-12-15T04:38:12.718Z,0
2022-12-15T04:38:48.566Z,0
2022-12-15T04:39:17.035Z,0
2022-12-15T04:39:47.973Z,0
2022-12-15T04:40:21.302Z,0
2022-12-15T04:40:52.059Z,0
2022-12-15T04:41:24.633Z,0
2022-12-15T04:41:55.898Z,0
2022-12-15T04:42:28.951Z,0
2022-12-15T04:43:00.047Z,0
2022-12-15T04:43:33.109Z,0
2022-12-15T04:44:03.897Z,0
2022-12-15T04:44:36.981Z,0
2022-12-15T04:45:09.186Z,0
2022-12-15T04:45:41.028Z,0
2022-12-15T04:46:12.075Z,0
2022-12-15T04:46:44.912Z,0
2022-12-15T04:47:15.999Z,0
2022-12-15T04:47:48.970Z,1.12
2022-12-15T04:48:20.018Z,1.12
2022-12-15T04:48:52.924Z,1.12
2022-12-15T04:49:23.975Z,1.12
2022-12-15T04:49:56.876Z,1.12
2022-12-15T04:50:28.494Z,1.12
2022-12-15T04:51:00.877Z,1.12
2022-12-15T04:51:32.017Z,1.12
2022-12-15T04:52:05.177Z,1.12
2022-12-15T04:52:35.889Z,1.12
2022-12-15T04:53:08.651Z,.32
2022-12-15T04:53:40.001Z,.32
2022-12-15T04:54:13.115Z,0
2022-12-15T04:54:43.932Z,0
2022-12-15T04:55:17.220Z,0
2022-12-15T04:55:48.021Z,0
2022-12-15T04:56:20.805Z,0
2022-12-15T04:56:51.983Z,0
2022-12-15T04:57:24.815Z,0
2022-12-15T04:57:56.056Z,0
2022-12-15T04:58:28.766Z,0
2022-12-15T04:58:59.907Z,0
2022-12-15T04:59:32.937Z,0
2022-12-15T05:00:05.754Z,0
2022-12-15T05:00:37.145Z,0
2022-12-15T05:01:08.090Z,0
2022-12-15T05:01:41.024Z,0
2022-12-15T05:02:11.996Z,0
2022-12-15T05:02:44.905Z,0
2022-12-15T05:03:29.961Z,0
2022-12-15T05:03:48.966Z,0
2022-12-15T05:04:19.917Z,0
2022-12-15T05:04:52.784Z,0
2022-12-15T05:05:24.372Z,0
2022-12-15T05:05:56.766Z,0
2022-12-15T05:06:27.971Z,0
2022-12-15T05:07:00.948Z,0
2022-12-15T05:07:31.955Z,0
2022-12-15T05:08:04.952Z,0
2022-12-15T05:08:35.984Z,0
2022-12-15T05:09:08.942Z,0
2022-12-15T05:09:39.904Z,0
2022-12-15T05:10:00.958Z,0
2022-12-15T05:10:28.306Z,0
2022-12-15T05:10:59.990Z,0
2022-12-15T05:11:32.133Z,0
2022-12-15T05:12:03.962Z,0
2022-12-15T05:12:37.078Z,0
2022-12-15T05:13:08.010Z,0
2022-12-15T05:13:40.835Z,0
2022-12-15T05:14:11.944Z,0
2022-12-15T05:14:44.723Z,0
2022-12-15T05:15:17.044Z,0
2022-12-15T05:15:48.937Z,0
2022-12-15T05:16:20.080Z,0
2022-12-15T05:16:52.899Z,0
2022-12-15T05:17:24.152Z,0
2022-12-15T05:17:56.771Z,0
2022-12-15T05:18:27.973Z,.32
2022-12-15T05:19:00.801Z,.32
2022-12-15T05:19:32.220Z,.32
2022-12-15T05:20:05.060Z,.32
2022-12-15T05:20:36.057Z,.32
2022-12-15T05:21:08.792Z,.32
2022-12-15T05:21:39.913Z,.32
2022-12-15T05:22:12.928Z,.32
2022-12-15T05:22:44.067Z,.64
2022-12-15T05:23:17.089Z,.64
2022-12-15T05:23:47.956Z,.64
2022-12-15T05:24:20.783Z,.64
2022-12-15T05:24:52.100Z,.64
2022-12-15T05:25:25.211Z,.64
2022-12-15T05:25:56.007Z,.64
2022-12-15T05:26:28.947Z,.32
2022-12-15T05:27:00.079Z,.32
2022-12-15T05:27:32.999Z,.32
2022-12-15T05:28:04.059Z,0
2022-12-15T05:28:37.135Z,0
2022-12-15T05:29:07.898Z,0
2022-12-15T05:29:40.748Z,0
2022-12-15T05:30:13.011Z,0
2022-12-15T05:30:45.098Z,0
2022-12-15T05:31:16.059Z,0
2022-12-15T05:31:48.824Z,0
2022-12-15T05:32:20.120Z,0
2022-12-15T05:32:53.741Z,0
2022-12-15T05:33:23.928Z,0
2022-12-15T05:34:02.625Z,0
2022-12-15T05:34:28.108Z,0
2022-12-15T05:35:01.315Z,0
2022-12-15T05:35:32.236Z,0
2022-12-15T05:36:04.994Z,0
2022-12-15T05:36:35.949Z,0
2022-12-15T05:37:09.102Z,0
2022-12-15T05:37:39.995Z,0
2022-12-15T05:38:12.669Z,0
2022-12-15T05:38:43.957Z,0
2022-12-15T05:39:16.669Z,0
2022-12-15T05:39:48.167Z,0
2022-12-15T05:40:21.234Z,0
2022-12-15T05:40:52.064Z,0
2022-12-15T05:41:24.891Z,0
2022-12-15T05:41:56.016Z,0
2022-12-15T05:42:28.884Z,0
2022-12-15T05:43:00.024Z,0
2022-12-15T05:43:32.964Z,.32
2022-12-15T05:44:03.897Z,.32
2022-12-15T05:44:37.017Z,0
2022-12-15T05:45:09.266Z,0
2022-12-15T05:45:40.963Z,0
2022-12-15T05:46:12.133Z,0
2022-12-15T05:46:44.917Z,0
2022-12-15T05:47:15.935Z,0
2022-12-15T05:47:48.711Z,0
2022-12-15T05:48:19.985Z,.32
2022-12-15T05:48:52.882Z,.32
2022-12-15T05:49:23.936Z,.32
2022-12-15T05:49:56.919Z,.32
2022-12-15T05:50:28.512Z,.32
2022-12-15T05:51:00.698Z,.32
2022-12-15T05:51:32.077Z,.64
2022-12-15T05:52:04.780Z,.64
2022-12-15T05:52:36.090Z,.64
2022-12-15T05:53:08.751Z,.64
2022-12-15T05:53:39.947Z,.64
2022-12-15T05:54:13.009Z,.64
2022-12-15T05:54:44.161Z,.64
2022-12-15T05:55:17.272Z,.64
2022-12-15T05:55:48.027Z,.64
2022-12-15T05:56:21.046Z,.64
2022-12-15T05:56:52.106Z,.64
2022-12-15T05:57:24.920Z,.64
2022-12-15T05:57:56.134Z,.32
2022-12-15T05:58:28.840Z,.32
2022-12-15T05:59:00.083Z,.32
2022-12-15T05:59:32.972Z,.32
2022-12-15T06:00:05.752Z,.32
2022-12-15T06:00:38.078Z,0
2022-12-15T06:01:08.000Z,0
2022-12-15T06:01:41.023Z,0
2022-12-15T06:02:12.045Z,0
2022-12-15T06:02:45.125Z,0
2022-12-15T06:03:16.118Z,0
2022-12-15T06:03:48.815Z,0
2022-12-15T06:04:20.111Z,0
2022-12-15T06:04:52.775Z,0
2022-12-15T06:05:24.350Z,0
2022-12-15T06:05:56.932Z,0
2022-12-15T06:06:28.015Z,0
2022-12-15T06:07:00.818Z,0
2022-12-15T06:07:32.004Z,0
2022-12-15T06:08:04.791Z,0
2022-12-15T06:08:36.054Z,0
2022-12-15T06:09:09.941Z,0
2022-12-15T06:09:39.948Z,0
2022-12-15T06:09:56.070Z,0
2022-12-15T06:10:28.318Z,0
2022-12-15T06:11:00.006Z,0
2022-12-15T06:11:32.194Z,0
2022-12-15T06:12:04.102Z,0
2022-12-15T06:12:35.819Z,0
2022-12-15T06:13:08.006Z,0
2022-12-15T06:13:40.061Z,0
2022-12-15T06:14:12.018Z,0
2022-12-15T06:14:28.851Z,0
2022-12-15T06:15:00.090Z,0
2022-12-15T06:15:34.276Z,0
2022-12-15T06:16:04.214Z,0
2022-12-15T06:16:44.275Z,0
2022-12-15T06:17:07.961Z,0
2022-12-15T06:17:40.823Z,0
2022-12-15T06:18:12.130Z,0
2022-12-15T06:18:44.921Z,0
2022-12-15T06:19:15.983Z,0
2022-12-15T06:19:49.196Z,0
2022-12-15T06:20:20.391Z,0
2022-12-15T06:20:52.753Z,0
2022-12-15T06:21:24.081Z,0
2022-12-15T06:21:56.902Z,0
2022-12-15T06:22:27.886Z,0
2022-12-15T06:23:00.906Z,0
2022-12-15T06:23:32.379Z,0
2022-12-15T06:24:04.858Z,0
2022-12-15T06:24:35.985Z,.32
2022-12-15T06:25:09.140Z,0
2022-12-15T06:25:40.149Z,0
2022-12-15T06:26:12.851Z,0
2022-12-15T06:26:44.007Z,0
2022-12-15T06:27:16.870Z,0
2022-12-15T06:27:48.253Z,.32
2022-12-15T06:28:20.808Z,0
2022-12-15T06:28:52.016Z,0
2022-12-15T06:29:24.806Z,0
2022-12-15T06:29:55.901Z,0
2022-12-15T06:30:30.002Z,0
2022-12-15T06:31:00.252Z,0
2022-12-15T06:31:33.178Z,0
2022-12-15T06:32:04.054Z,0
2022-12-15T06:32:36.870Z,0
2022-12-15T06:33:08.086Z,0
2022-12-15T06:33:40.515Z,0
2022-12-15T06:34:12.097Z,0
2022-12-15T06:34:44.973Z,0
2022-12-15T06:35:16.232Z,0
2022-12-15T06:35:50.442Z,0
2022-12-15T06:36:20.129Z,0
2022-12-15T06:36:53.103Z,0
2022-12-15T06:37:23.993Z,0
2022-12-15T06:37:57.835Z,0
2022-12-15T06:38:28.113Z,0
2022-12-15T06:39:00.736Z,0
2022-12-15T06:39:32.074Z,0
2022-12-15T06:40:05.022Z,0
2022-12-15T06:40:38.292Z,0
2022-12-15T06:41:08.874Z,0
2022-12-15T06:41:40.082Z,0
2022-12-15T06:42:12.973Z,0
2022-12-15T06:42:43.883Z,0
2022-12-15T06:43:16.743Z,0
2022-12-15T06:43:48.045Z,0
2022-12-15T06:44:21.958Z,0
2022-12-15T06:44:52.007Z,0
2022-12-15T06:45:26.147Z,0
2022-12-15T06:45:56.216Z,0
2022-12-15T06:46:30.069Z,0
2022-12-15T06:46:59.817Z,0
2022-12-15T06:47:33.033Z,0
2022-12-15T06:48:04.126Z,0
2022-12-15T06:48:37.501Z,0
2022-12-15T06:49:08.088Z,0
2022-12-15T06:49:40.887Z,0
2022-12-15T06:50:12.181Z,0
2022-12-15T06:50:28.085Z,0
2022-12-15T06:51:00.259Z,0
2022-12-15T06:51:32.049Z,0
2022-12-15T06:52:05.047Z,0
2022-12-15T06:52:36.107Z,0
2022-12-15T06:53:08.611Z,0
2022-12-15T06:53:40.095Z,0
2022-12-15T06:54:12.865Z,0
2022-12-15T06:54:44.068Z,0
2022-12-15T06:55:18.106Z,0
2022-12-15T06:55:48.015Z,0
2022-12-15T06:56:23.235Z,0
2022-12-15T06:56:52.019Z,0
2022-12-15T06:57:24.892Z,0
2022-12-15T06:57:56.067Z,0
2022-12-15T06:58:28.780Z,0
2022-12-15T06:58:59.964Z,0
2022-12-15T06:59:32.968Z,0
2022-12-15T07:00:05.932Z,0
2022-12-15T07:00:37.966Z,0
2022-12-15T07:01:07.956Z,0
2022-12-15T07:01:40.940Z,0
2022-12-15T07:02:12.200Z,0
2022-12-15T07:02:45.181Z,0
2022-12-15T07:03:16.269Z,0
2022-12-15T07:03:49.064Z,.32
2022-12-15T07:04:19.914Z,.64
2022-12-15T07:04:52.919Z,.32
2022-12-15T07:05:24.427Z,0
2022-12-15T07:05:57.021Z,0
2022-12-15T07:06:27.965Z,0
2022-12-15T07:07:01.826Z,0
2022-12-15T07:07:32.192Z,0
2022-12-15T07:08:04.893Z,0
2022-12-15T07:08:41.426Z,0
2022-12-15T07:09:08.963Z,0
2022-12-15T07:09:40.127Z,0
2022-12-15T07:10:14.372Z,0
2022-12-15T07:10:44.180Z,0
2022-12-15T07:11:16.856Z,0
2022-12-15T07:11:48.399Z,0
2022-12-15T07:12:21.033Z,0
2022-12-15T07:12:52.210Z,0
2022-12-15T07:13:24.912Z,0
2022-12-15T07:13:56.009Z,0
2022-12-15T07:14:30.533Z,0
2022-12-15T07:15:02.646Z,0
2022-12-15T07:15:33.359Z,0
2022-12-15T07:16:04.458Z,0
2022-12-15T07:16:37.929Z,0
2022-12-15T07:17:09.639Z,0
2022-12-15T07:17:43.410Z,0
2022-12-15T07:18:12.573Z,0
2022-12-15T07:18:46.048Z,0
2022-12-15T07:19:16.345Z,0
2022-12-15T07:19:49.109Z,0
2022-12-15T07:20:24.186Z,0
2022-12-15T07:20:53.365Z,0
2022-12-15T07:21:24.605Z,0
2022-12-15T07:21:57.207Z,0
2022-12-15T07:22:28.174Z,0
2022-12-15T07:23:01.009Z,0
2022-12-15T07:23:52.638Z,0
2022-12-15T07:24:05.691Z,0
2022-12-15T07:24:36.216Z,0
2022-12-15T07:25:10.159Z,0
2022-12-15T07:25:40.350Z,0
2022-12-15T07:26:12.963Z,0
2022-12-15T07:26:44.358Z,0
2022-12-15T07:27:17.171Z,0
2022-12-15T07:27:48.099Z,0
2022-12-15T07:28:25.590Z,0
2022-12-15T07:28:52.327Z,0
2022-12-15T07:29:25.124Z,0
2022-12-15T07:29:56.152Z,0
2022-12-15T07:30:38.282Z,0